首页
METAR-TAF:

METAR-TAF

机场 :

羅曼·莫圖國際機場

科羅爾, 巴伯尔道布岛, 帛琉

纬度: 07-22N, 经度: 134-32E, 海拔: 54米

当前天气观测

该预报发布于40分钟前的12:53 UTC
风速3节,风向
温度 26°C
湿度 94%
气压 1008 hPa
能見度: 17.7公里
多云层高于1500英尺, 积雨云.
阴天层高于29000英尺
雷暴, 小雨

METAR: PTRO 171253Z 01003KT 11SM -TSRA BKN015CB OVC290 26/25 A2978 RMK ONCL LTGICCC ALQDS TS ALQDS

时间: 22:33 (13:33 UTC)

预报

该预报发布于1小时和55分钟前的11:38 UTC
预报有效从17日的 12点(UTC)到 18日的 12点(UTC)
风速15节,风向北转西北
能見度: 10公里
多云层高于1500英尺, 积雨云.
阴天层高于11000英尺
小雨, 附近有雷暴
短暂存在
从 17日的 12点(UTC)到 17日的 16点(UTC)
风速15节,风向,有时为25节阵风
能見度: 3.2公里
阴天层高于1500英尺, 积雨云.
雷暴, 雨
从 17日的 1600点(UTC)
风速15节,风向,有时为25节阵风
能見度: 8.0公里
多云层高于1500英尺, 积雨云.
阴天层高于10000英尺
小雨, 附近有雷暴
短暂存在
从 17日的 16点(UTC)到 17日的 20点(UTC)
能見度: 3.2公里
散云层高于1000英尺
阴天层高于1500英尺, 积雨云.
雷暴, 雨
从 17日的 2000点(UTC)
风速15节,风向北转东北,有时为25节阵风
能見度: 8.0公里
阴天层高于1500英尺, 积雨云.
小雨, 附近有雷暴
短暂存在
从 17日的 20点(UTC)到 17日的 24点(UTC)
能見度: 3.2公里
散云层高于800英尺
阴天层高于1500英尺, 积雨云.
雷暴, 雨
从 18日的 0000点(UTC)
风速18节,风向东北,有时为28节阵风
能見度: 6.4公里
散云层高于800英尺
阴天层高于1500英尺, 积雨云.
雨, 附近有雷暴

TAF: PTRO 171138Z 1712/1812 34015KT P6SM -RA VCTS BKN015CB OVC110 TEMPO 1712/1716 36015G25KT 2SM TSRA OVC015CB FM171600 01015G25KT 5SM -RA VCTS BKN015CB OVC100 TEMPO 1716/1720 2SM TSRA SCT010 OVC015CB FM172000 02015G25KT 5SM -RA VCTS OVC015CB TEMPO 1720/1724 2SM TSRA SCT008 OVC015CB FM180000 04018G28KT 4SM RA VCTS SCT008 OVC015CB

超过4000个机场的气象观测和天气预报(METAR&TAF报告)。

可查询的气象台以黄色和红色小点在地图上表示。

将鼠标移到小点上方,可查看气象台名称。

然后点击查看天气观测和预报。

如需切换地图:点击带黑十字的绿色按钮放大地图;点击带横线的绿色按钮缩小地图;或者点击绿色箭头查看邻近地区的地图。


METAR-TAF: